^^
Grace C. Lehan Memorial Weather Station Historical Data
Daily Summary for January 13, 2021 Units:  Both    English   Metric
Daily Weekly Monthly Yearly
  High: Low: Average:
Temperature: 98.3 °F /  36.8 °C 73.5 °F /  23.1 °C 86.4 °F /  30.2 °C
Dew Point: 77.3 °F /  25.2 °C 70.9 °F /  21.6 °C 74.3 °F /  23.5 °C
Humidity: 93% 46.7% 69%
Wind Speed: 4.6mph /  7.4km/h - 0.4mph /  0.6km/h
Wind Gust: 11mph /  17.7km/h - -
Wind- - West
Pressure: 30.01 in /  1016.1 hPa 29.92 in /  1013.1 hPa -
Precipitation: 0.00 in /  0 mm    
 
 
Tabular Data for January 13, 2021
Time Temperature Dew Point Pressure Wind Wind Speed Wind Gust Humidity Rainfall Rate (Hourly) solar
00:09 77.2 °F /  25.1 °C 72 °F /  22.2 °C 29.94in /  1013.8hPa Calm     84% 0.00in /  0mm 0 W/m2
00:14 77.2 °F /  25.1 °C 72.3 °F /  22.4 °C 29.94in /  1013.8hPa Calm     84.7% 0.00in /  0mm 0 W/m2
00:19 77.2 °F /  25.1 °C 72.3 °F /  22.4 °C 29.94in /  1013.8hPa Calm     85% 0.00in /  0mm 0 W/m2
00:24 77.1 °F /  25.1 °C 72.3 °F /  22.4 °C 29.94in /  1013.8hPa Calm     85% 0.00in /  0mm 0 W/m2
00:29 77.1 °F /  25.1 °C 72.3 °F /  22.4 °C 29.94in /  1013.8hPa Calm     85% 0.00in /  0mm 0 W/m2
00:34 77.1 °F /  25.1 °C 72 °F /  22.2 °C 29.94in /  1013.8hPa Calm     84.2% 0.00in /  0mm 0 W/m2
00:39 77 °F /  25 °C 72.1 °F /  22.3 °C 29.95in /  1014.1hPa Calm     84.8% 0.00in /  0mm 0 W/m2
00:44 77.1 °F /  25.1 °C 72.2 °F /  22.3 °C 29.95in /  1014.1hPa Calm     85% 0.00in /  0mm 0 W/m2
00:49 77.1 °F /  25.1 °C 72.4 °F /  22.4 °C 29.95in /  1014.1hPa Calm     85.4% 0.00in /  0mm 0 W/m2
00:54 77.1 °F /  25.1 °C 72.4 °F /  22.4 °C 29.95in /  1014.1hPa Calm     85.5% 0.00in /  0mm 0 W/m2
00:59 77 °F /  25 °C 72.2 °F /  22.3 °C 29.95in /  1014.1hPa Calm     85% 0.00in /  0mm 0 W/m2
01:04 77 °F /  25 °C 72.2 °F /  22.3 °C 29.96in /  1014.4hPa Calm     85.1% 0.00in /  0mm 0 W/m2
01:09 77 °F /  25 °C 72.2 °F /  22.3 °C 29.96in /  1014.4hPa Calm     85.2% 0.00in /  0mm 0 W/m2
01:14 77 °F /  25 °C 72.1 °F /  22.3 °C 29.96in /  1014.4hPa Calm     85% 0.00in /  0mm 0 W/m2
01:19 76.9 °F /  24.9 °C 72.1 °F /  22.3 °C 29.96in /  1014.4hPa Calm     85% 0.00in /  0mm 0 W/m2
01:24 76.9 °F /  24.9 °C 72.1 °F /  22.3 °C 29.96in /  1014.4hPa Calm     85% 0.00in /  0mm 0 W/m2
01:29 76.9 °F /  24.9 °C 72 °F /  22.2 °C 29.96in /  1014.4hPa Calm     85% 0.00in /  0mm 0 W/m2
01:34 76.8 °F /  24.9 °C 71.9 °F /  22.2 °C 29.96in /  1014.4hPa Calm     84.8% 0.00in /  0mm 0 W/m2
01:39 76.8 °F /  24.9 °C 71.9 °F /  22.2 °C 29.96in /  1014.4hPa Calm     84.8% 0.00in /  0mm 0 W/m2
01:44 76.9 °F /  24.9 °C 72.1 °F /  22.3 °C 29.95in /  1014.1hPa Calm     85% 0.00in /  0mm 0 W/m2
01:49 76.9 °F /  24.9 °C 72.1 °F /  22.3 °C 29.96in /  1014.4hPa Calm     85% 0.00in /  0mm 0 W/m2
01:54 77 °F /  25 °C 72.1 °F /  22.3 °C 29.95in /  1014.1hPa Calm     85% 0.00in /  0mm 0 W/m2
01:59 77 °F /  25 °C 72.1 °F /  22.3 °C 29.95in /  1014.1hPa Calm     85% 0.00in /  0mm 0 W/m2
02:04 76.9 °F /  24.9 °C 72.1 °F /  22.3 °C 29.96in /  1014.4hPa Calm     85% 0.00in /  0mm 0 W/m2
02:09 76.9 °F /  24.9 °C 72.1 °F /  22.3 °C 29.96in /  1014.4hPa Calm     85% 0.00in /  0mm 0 W/m2
02:14 76.9 °F /  24.9 °C 72.1 °F /  22.3 °C 29.96in /  1014.4hPa Calm     85% 0.00in /  0mm 0 W/m2
02:19 76.9 °F /  24.9 °C 72.3 °F /  22.4 °C 29.96in /  1014.4hPa Calm     85.8% 0.00in /  0mm 0 W/m2
02:24 76.8 °F /  24.9 °C 72.3 °F /  22.4 °C 29.96in /  1014.4hPa Calm     86% 0.00in /  0mm 0 W/m2
02:29 76.8 °F /  24.9 °C 72.3 °F /  22.4 °C 29.96in /  1014.4hPa Calm     86% 0.00in /  0mm 0 W/m2
02:34 76.6 °F /  24.8 °C 72.2 °F /  22.3 °C 29.96in /  1014.4hPa Calm     86.2% 0.00in /  0mm 0 W/m2
02:39 76.5 °F /  24.7 °C 72.4 °F /  22.4 °C 29.96in /  1014.4hPa Calm   1mph /  1.6km/h 87% 0.00in /  0mm 0 W/m2
02:44 76.5 °F /  24.7 °C 72.3 °F /  22.4 °C 29.96in /  1014.4hPa East 0.1mph /  0.2km/h 2mph /  3.2km/h 87% 0.00in /  0mm 0 W/m2
02:49 76.4 °F /  24.7 °C 72.2 °F /  22.3 °C 29.95in /  1014.1hPa Calm   2mph /  3.2km/h 87% 0.00in /  0mm 0 W/m2
02:54 76.3 °F /  24.6 °C 72.2 °F /  22.3 °C 29.95in /  1014.1hPa Calm   2mph /  3.2km/h 87% 0.00in /  0mm 0 W/m2
02:59 76.3 °F /  24.6 °C 72.2 °F /  22.3 °C 29.95in /  1014.1hPa Calm   2mph /  3.2km/h 87% 0.00in /  0mm 0 W/m2
03:04 76.3 °F /  24.6 °C 72.1 °F /  22.3 °C 29.94in /  1013.8hPa East 0.1mph /  0.2km/h 2mph /  3.2km/h 87% 0.00in /  0mm 0 W/m2
03:09 76.2 °F /  24.6 °C 72.1 °F /  22.3 °C 29.94in /  1013.8hPa East 0.1mph /  0.2km/h 3mph /  4.8km/h 87% 0.00in /  0mm 0 W/m2
03:14 76.2 °F /  24.6 °C 72 °F /  22.2 °C 29.94in /  1013.8hPa Calm   3mph /  4.8km/h 87% 0.00in /  0mm 0 W/m2
03:19 76.1 °F /  24.5 °C 72 °F /  22.2 °C 29.94in /  1013.8hPa Calm   3mph /  4.8km/h 87% 0.00in /  0mm 0 W/m2
03:24 76.1 °F /  24.5 °C 71.9 °F /  22.2 °C 29.94in /  1013.8hPa Calm   3mph /  4.8km/h 87% 0.00in /  0mm 0 W/m2
03:29 76.1 °F /  24.5 °C 71.9 °F /  22.2 °C 29.94in /  1013.8hPa Calm   3mph /  4.8km/h 87% 0.00in /  0mm 0 W/m2
03:34 76.1 °F /  24.5 °C 72 °F /  22.2 °C 29.94in /  1013.8hPa Calm   3mph /  4.8km/h 87.1% 0.00in /  0mm 0 W/m2
03:39 76 °F /  24.4 °C 72.2 °F /  22.3 °C 29.95in /  1014.1hPa Calm     88% 0.00in /  0mm 0 W/m2
03:44 76 °F /  24.4 °C 72.2 °F /  22.3 °C 29.95in /  1014.1hPa Calm     88% 0.00in /  0mm 0 W/m2
03:49 75.9 °F /  24.4 °C 72.1 °F /  22.3 °C 29.95in /  1014.1hPa Calm     88% 0.00in /  0mm 0 W/m2
03:54 75.8 °F /  24.3 °C 72 °F /  22.2 °C 29.95in /  1014.1hPa Calm     88% 0.00in /  0mm 0 W/m2
03:59 75.7 °F /  24.3 °C 71.9 °F /  22.2 °C 29.95in /  1014.1hPa Calm     88% 0.00in /  0mm 0 W/m2
04:00 75.7 °F /  24.3 °C 71.9 °F /  22.2 °C 29.95in /  1014.1hPa Calm     88% 0.00in /  0mm 0 W/m2
04:09 75.6 °F /  24.2 °C 72.1 °F /  22.3 °C 29.95in /  1014.1hPa Calm     89% 0.00in /  0mm 0 W/m2
04:14 75.5 °F /  24.2 °C 72.1 °F /  22.3 °C 29.95in /  1014.1hPa Calm     89% 0.00in /  0mm 0 W/m2
04:19 75.5 °F /  24.2 °C 72 °F /  22.2 °C 29.95in /  1014.1hPa Calm     89% 0.00in /  0mm 0 W/m2
04:24 75.4 °F /  24.1 °C 71.9 °F /  22.2 °C 29.95in /  1014.1hPa Calm     89% 0.00in /  0mm 0 W/m2
04:29 75.3 °F /  24.1 °C 71.8 °F /  22.1 °C 29.95in /  1014.1hPa Calm     89% 0.00in /  0mm 0 W/m2
04:34 75.3 °F /  24.1 °C 71.8 °F /  22.1 °C 29.95in /  1014.1hPa Calm     89% 0.00in /  0mm 0 W/m2
04:39 75.2 °F /  24 °C 71.7 °F /  22.1 °C 29.95in /  1014.1hPa Calm     89% 0.00in /  0mm 0 W/m2
04:44 75.1 °F /  23.9 °C 71.7 °F /  22.1 °C 29.95in /  1014.1hPa Calm     89.2% 0.00in /  0mm 0 W/m2
04:49 75.1 °F /  23.9 °C 71.9 °F /  22.2 °C 29.95in /  1014.1hPa Calm     90% 0.00in /  0mm 0 W/m2
04:54 75 °F /  23.9 °C 71.9 °F /  22.2 °C 29.95in /  1014.1hPa Calm     90% 0.00in /  0mm 0 W/m2
04:59 74.9 °F /  23.8 °C 71.8 °F /  22.1 °C 29.95in /  1014.1hPa Calm     90% 0.00in /  0mm 0 W/m2
05:04 74.9 °F /  23.8 °C 71.8 °F /  22.1 °C 29.96in /  1014.4hPa Calm     90% 0.00in /  0mm 0 W/m2
05:09 74.9 °F /  23.8 °C 71.7 °F /  22.1 °C 29.95in /  1014.1hPa Calm     90% 0.00in /  0mm 0 W/m2
05:14 74.7 °F /  23.7 °C 71.6 °F /  22 °C 29.95in /  1014.1hPa Calm     90% 0.00in /  0mm 0 W/m2
05:19 74.6 °F /  23.7 °C 71.5 °F /  21.9 °C 29.95in /  1014.1hPa Calm     90% 0.00in /  0mm 0 W/m2
05:24 74.5 °F /  23.6 °C 71.4 °F /  21.9 °C 29.95in /  1014.1hPa Calm   1mph /  1.6km/h 90% 0.00in /  0mm 0 W/m2
05:29 74.4 °F /  23.6 °C 71.4 °F /  21.9 °C 29.96in /  1014.4hPa Calm   1mph /  1.6km/h 90.3% 0.00in /  0mm 0 W/m2
05:34 74.3 °F /  23.5 °C 71.5 °F /  21.9 °C 29.96in /  1014.4hPa Calm   1mph /  1.6km/h 91% 0.00in /  0mm 0 W/m2
05:39 74.2 °F /  23.4 °C 71.4 °F /  21.9 °C 29.96in /  1014.4hPa Calm     91% 0.00in /  0mm 0 W/m2
05:44 74.1 °F /  23.4 °C 71.3 °F /  21.8 °C 29.96in /  1014.4hPa Calm     91% 0.00in /  0mm 0 W/m2
05:49 74 °F /  23.3 °C 71.2 °F /  21.8 °C 29.96in /  1014.4hPa Calm     91% 0.00in /  0mm 0 W/m2
05:54 73.9 °F /  23.3 °C 71.1 °F /  21.7 °C 29.96in /  1014.4hPa Calm     91% 0.00in /  0mm 0 W/m2
05:59 73.8 °F /  23.2 °C 71.1 °F /  21.7 °C 29.97in /  1014.8hPa Calm     91% 0.00in /  0mm 0 W/m2
06:04 73.8 °F /  23.2 °C 71 °F /  21.7 °C 29.97in /  1014.8hPa Calm   1mph /  1.6km/h 91% 0.00in /  0mm 5 W/m2
06:09 73.7 °F /  23.2 °C 70.9 °F /  21.6 °C 29.97in /  1014.8hPa Calm   1mph /  1.6km/h 91% 0.00in /  0mm 7 W/m2
06:14 73.6 °F /  23.1 °C 71 °F /  21.7 °C 29.97in /  1014.8hPa Calm   1mph /  1.6km/h 91.6% 0.00in /  0mm 11 W/m2
06:19 73.6 °F /  23.1 °C 71.1 °F /  21.7 °C 29.97in /  1014.8hPa Calm   1mph /  1.6km/h 92% 0.00in /  0mm 14 W/m2
06:24 73.5 °F /  23.1 °C 71.1 °F /  21.7 °C 29.97in /  1014.8hPa Calm   1mph /  1.6km/h 92% 0.00in /  0mm 19 W/m2
06:29 73.5 °F /  23.1 °C 71 °F /  21.7 °C 29.96in /  1014.4hPa Calm   1mph /  1.6km/h 92% 0.00in /  0mm 25 W/m2
06:34 73.5 °F /  23.1 °C 71.1 °F /  21.7 °C 29.96in /  1014.4hPa Calm   1mph /  1.6km/h 92% 0.00in /  0mm 30 W/m2
06:39 73.6 °F /  23.1 °C 71.2 °F /  21.8 °C 29.96in /  1014.4hPa Calm     92% 0.00in /  0mm 33 W/m2
06:44 73.7 °F /  23.2 °C 71.2 °F /  21.8 °C 29.97in /  1014.8hPa Calm     92% 0.00in /  0mm 58 W/m2
06:49 73.9 °F /  23.3 °C 71.4 °F /  21.9 °C 29.97in /  1014.8hPa Calm     92% 0.00in /  0mm 63 W/m2
06:54 74.1 °F /  23.4 °C 71.7 °F /  22.1 °C 29.97in /  1014.8hPa Calm     92.3% 0.00in /  0mm 107 W/m2
06:59 74.4 °F /  23.6 °C 72.2 °F /  22.3 °C 29.97in /  1014.8hPa Calm     93% 0.00in /  0mm 121 W/m2
07:04 74.8 °F /  23.8 °C 72.3 °F /  22.4 °C 29.97in /  1014.8hPa Calm     92% 0.00in /  0mm 155 W/m2
07:09 75.3 °F /  24.1 °C 72.8 °F /  22.7 °C 29.98in /  1015.1hPa Calm     91.8% 0.00in /  0mm 181 W/m2
07:14 76 °F /  24.4 °C 73.3 °F /  22.9 °C 29.97in /  1014.8hPa Calm     91.2% 0.00in /  0mm 207 W/m2
07:19 76.9 °F /  24.9 °C 73.7 °F /  23.2 °C 29.97in /  1014.8hPa Calm     90.1% 0.00in /  0mm 188 W/m2
07:24 77.7 °F /  25.4 °C 73.8 °F /  23.2 °C 29.98in /  1015.1hPa Calm     87.8% 0.00in /  0mm 192 W/m2
07:29 78.8 °F /  26 °C 74 °F /  23.3 °C 29.98in /  1015.1hPa Calm     85.3% 0.00in /  0mm 202 W/m2
07:34 79.7 °F /  26.5 °C 74.1 °F /  23.4 °C 29.98in /  1015.1hPa Calm     83.2% 0.00in /  0mm 223 W/m2
07:39 80.5 °F /  26.9 °C 74.3 °F /  23.5 °C 29.98in /  1015.1hPa Calm     81.4% 0.00in /  0mm 243 W/m2
07:44 81.2 °F /  27.3 °C 74.5 °F /  23.6 °C 29.98in /  1015.1hPa Calm     80.3% 0.00in /  0mm 299 W/m2
07:49 81.8 °F /  27.7 °C 74.6 °F /  23.7 °C 29.98in /  1015.1hPa Calm     79% 0.00in /  0mm 308 W/m2
07:54 82.3 °F /  27.9 °C 74.2 °F /  23.4 °C 29.98in /  1015.1hPa Calm     76.5% 0.00in /  0mm 111 W/m2
07:59 82.7 °F /  28.2 °C 74.3 °F /  23.5 °C 29.99in /  1015.5hPa Calm     76% 0.00in /  0mm 308 W/m2
08:00 82.8 °F /  28.2 °C 74.1 °F /  23.4 °C 29.98in /  1015.1hPa Calm     75% 0.00in /  0mm 308 W/m2
08:09 83.3 °F /  28.5 °C 74.3 °F /  23.5 °C 29.99in /  1015.5hPa Calm     74.4% 0.00in /  0mm 327 W/m2
08:14 83.7 °F /  28.7 °C 74.4 °F /  23.6 °C 29.99in /  1015.5hPa Calm     73.7% 0.00in /  0mm 348 W/m2
08:19 84.1 °F /  28.9 °C 74.4 °F /  23.6 °C 29.99in /  1015.5hPa Calm     72.7% 0.00in /  0mm 360 W/m2
08:24 84.5 °F /  29.2 °C 74.6 °F /  23.7 °C 29.99in /  1015.5hPa Calm     72.4% 0.00in /  0mm 385 W/m2
08:29 85 °F /  29.4 °C 74.6 °F /  23.7 °C 29.99in /  1015.5hPa Calm     71.1% 0.00in /  0mm 403 W/m2
08:34 85.5 °F /  29.7 °C 74.6 °F /  23.7 °C 29.99in /  1015.5hPa Calm     70.2% 0.00in /  0mm 417 W/m2
08:39 86.1 °F /  30.1 °C 75 °F /  23.9 °C 29.99in /  1015.5hPa Calm     69.6% 0.00in /  0mm 431 W/m2
08:44 86.6 °F /  30.3 °C 74.8 °F /  23.8 °C 29.99in /  1015.5hPa Calm     68% 0.00in /  0mm 446 W/m2
08:49 87.2 °F /  30.7 °C 75 °F /  23.9 °C 29.99in /  1015.5hPa Calm     67% 0.00in /  0mm 461 W/m2
08:54 87.6 °F /  30.9 °C 75.1 °F /  23.9 °C 29.99in /  1015.5hPa Calm     66.7% 0.00in /  0mm 471 W/m2
08:59 88 °F /  31.1 °C 75.3 °F /  24.1 °C 29.99in /  1015.5hPa Calm     66.2% 0.00in /  0mm 489 W/m2
09:04 88.1 °F /  31.2 °C 75.2 °F /  24 °C 29.99in /  1015.5hPa Calm     65.7% 0.00in /  0mm 501 W/m2
09:09 88.4 °F /  31.3 °C 76.5 °F /  24.7 °C 29.99in /  1015.5hPa Calm     68% 0.00in /  0mm 519 W/m2
09:14 88.7 °F /  31.5 °C 75.9 °F /  24.4 °C 29.99in /  1015.5hPa Calm     65.9% 0.00in /  0mm 531 W/m2
09:19 89.2 °F /  31.8 °C 76 °F /  24.4 °C 29.99in /  1015.5hPa Calm     65.3% 0.00in /  0mm 545 W/m2
09:24 89.7 °F /  32.1 °C 76.3 °F /  24.6 °C 29.99in /  1015.5hPa Calm     64.8% 0.00in /  0mm 559 W/m2
09:29 89.9 °F /  32.2 °C 75.6 °F /  24.2 °C 29.99in /  1015.5hPa Calm     63% 0.00in /  0mm 566 W/m2
09:34 89.7 °F /  32.1 °C 76.3 °F /  24.6 °C 29.99in /  1015.5hPa Calm     64.8% 0.00in /  0mm 580 W/m2
09:39 89.9 °F /  32.2 °C 76.3 °F /  24.6 °C 29.99in /  1015.5hPa Calm     64.4% 0.00in /  0mm 601 W/m2
09:44 90.4 °F /  32.4 °C 76.5 °F /  24.7 °C 30.00in /  1015.8hPa Calm     63.8% 0.00in /  0mm 621 W/m2
09:49 90.8 °F /  32.7 °C 76.3 °F /  24.6 °C 29.99in /  1015.5hPa Calm     62.6% 0.00in /  0mm 636 W/m2
09:54 91.1 °F /  32.8 °C 76.1 °F /  24.5 °C 30.00in /  1015.8hPa Calm     61.7% 0.00in /  0mm 645 W/m2
09:59 91.3 °F /  32.9 °C 76.4 °F /  24.7 °C 30.00in /  1015.8hPa Calm     61.8% 0.00in /  0mm 657 W/m2
10:04 91.5 °F /  33.1 °C 76.6 °F /  24.8 °C 30.00in /  1015.8hPa Calm     62% 0.00in /  0mm 671 W/m2
10:09 91.6 °F /  33.1 °C 77.2 °F /  25.1 °C 30.00in /  1015.8hPa Calm     62.8% 0.00in /  0mm 675 W/m2
10:14 92 °F /  33.3 °C 77.3 °F /  25.2 °C 30.00in /  1015.8hPa Calm     62.4% 0.00in /  0mm 701 W/m2
10:19 92.3 °F /  33.5 °C 76.8 °F /  24.9 °C 30.00in /  1015.8hPa Calm     60.8% 0.00in /  0mm 714 W/m2
10:24 92.6 °F /  33.7 °C 76.8 °F /  24.9 °C 30.00in /  1015.8hPa Calm     60.2% 0.00in /  0mm 722 W/m2
10:29 92.8 °F /  33.8 °C 76.7 °F /  24.8 °C 30.00in /  1015.8hPa Calm     59.7% 0.00in /  0mm 714 W/m2
10:34 93.1 °F /  33.9 °C 77 °F /  25 °C 30.00in /  1015.8hPa Calm     59.8% 0.00in /  0mm 719 W/m2
10:39 93.4 °F /  34.1 °C 77.1 °F /  25.1 °C 30.00in /  1015.8hPa Calm     59.3% 0.00in /  0mm 745 W/m2
10:44 93.6 °F /  34.2 °C 76.6 °F /  24.8 °C 30.00in /  1015.8hPa Calm     58% 0.00in /  0mm 745 W/m2
10:49 93.4 °F /  34.1 °C 76 °F /  24.4 °C 30.00in /  1015.8hPa Calm     57.1% 0.00in /  0mm 737 W/m2
10:54 93.3 °F /  34.1 °C 76.6 °F /  24.8 °C 30.00in /  1015.8hPa Calm     58.6% 0.00in /  0mm 758 W/m2
10:59 93.2 °F /  34 °C 76.4 °F /  24.7 °C 30.00in /  1015.8hPa Calm     58.2% 0.00in /  0mm 775 W/m2
11:04 93.3 °F /  34.1 °C 77.1 °F /  25.1 °C 30.00in /  1015.8hPa Calm     59.6% 0.00in /  0mm 784 W/m2
11:09 93.6 °F /  34.2 °C 77.2 °F /  25.1 °C 30.01in /  1016.1hPa Calm     59.1% 0.00in /  0mm 793 W/m2
11:14 93.6 °F /  34.2 °C 75.8 °F /  24.3 °C 30.00in /  1015.8hPa Calm     56.5% 0.00in /  0mm 798 W/m2
11:19 93.3 °F /  34.1 °C 76.5 °F /  24.7 °C 30.01in /  1016.1hPa Calm     58.4% 0.00in /  0mm 800 W/m2
11:24 93.6 °F /  34.2 °C 76.4 °F /  24.7 °C 30.00in /  1015.8hPa Calm     57.6% 0.00in /  0mm 795 W/m2
11:29 93.8 °F /  34.3 °C 76.6 °F /  24.8 °C 30.00in /  1015.8hPa Calm     57.7% 0.00in /  0mm 780 W/m2
11:34 94.3 °F /  34.6 °C 76.6 °F /  24.8 °C 30.00in /  1015.8hPa Calm     56.8% 0.00in /  0mm 793 W/m2
11:39 94.8 °F /  34.9 °C 76.3 °F /  24.6 °C 30.00in /  1015.8hPa Calm     55.3% 0.00in /  0mm 791 W/m2
11:44 95.2 °F /  35.1 °C 75.6 °F /  24.2 °C 30.00in /  1015.8hPa Calm     53.5% 0.00in /  0mm 791 W/m2
11:49 95.4 °F /  35.2 °C 76.3 °F /  24.6 °C 30.00in /  1015.8hPa Calm     54.2% 0.00in /  0mm 823 W/m2
11:54 95.5 °F /  35.3 °C 76.3 °F /  24.6 °C 30.00in /  1015.8hPa WNW 1.3mph /  2.1km/h 5mph /  8km/h 54.2% 0.00in /  0mm 835 W/m2
11:59 95.2 °F /  35.1 °C 75.3 °F /  24.1 °C 30.00in /  1015.8hPa WNW 0.1mph /  0.2km/h 5mph /  8km/h 52.9% 0.00in /  0mm 849 W/m2
12:00 95 °F /  35 °C 74.6 °F /  23.7 °C 30.00in /  1015.8hPa Calm   5mph /  8km/h 52% 0.00in /  0mm 849 W/m2
12:09 95.3 °F /  35.2 °C 77 °F /  25 °C 30.00in /  1015.8hPa Calm   1mph /  1.6km/h 55.8% 0.00in /  0mm 858 W/m2
12:14 95.7 °F /  35.4 °C 76.3 °F /  24.6 °C 30.00in /  1015.8hPa WNW 0.3mph /  0.5km/h 3mph /  4.8km/h 53.9% 0.00in /  0mm 847 W/m2
12:19 95.9 °F /  35.5 °C 75.6 °F /  24.2 °C 30.00in /  1015.8hPa WNW 0.1mph /  0.2km/h 3mph /  4.8km/h 52.3% 0.00in /  0mm 831 W/m2
12:24 95.7 °F /  35.4 °C 76.4 °F /  24.7 °C 30.00in /  1015.8hPa Calm   3mph /  4.8km/h 54.1% 0.00in /  0mm 849 W/m2
12:29 95.4 °F /  35.2 °C 75.9 °F /  24.4 °C 30.00in /  1015.8hPa WNW 0.1mph /  0.2km/h 3mph /  4.8km/h 53.7% 0.00in /  0mm 865 W/m2
12:34 94.8 °F /  34.9 °C 76 °F /  24.4 °C 30.00in /  1015.8hPa NW 0.1mph /  0.2km/h 3mph /  4.8km/h 54.8% 0.00in /  0mm 863 W/m2
12:39 94.4 °F /  34.7 °C 75.9 °F /  24.4 °C 30.00in /  1015.8hPa NW 0.1mph /  0.2km/h 2mph /  3.2km/h 55.3% 0.00in /  0mm 867 W/m2
12:44 94.3 °F /  34.6 °C 76.1 °F /  24.5 °C 30.00in /  1015.8hPa NW 1.4mph /  2.3km/h 4mph /  6.4km/h 55.8% 0.00in /  0mm 868 W/m2
12:49 94.5 °F /  34.7 °C 76 °F /  24.4 °C 29.99in /  1015.5hPa WNW 1.4mph /  2.3km/h 5mph /  8km/h 55.2% 0.00in /  0mm 898 W/m2
12:54 94.8 °F /  34.9 °C 76.6 °F /  24.8 °C 29.99in /  1015.5hPa WNW 0.5mph /  0.8km/h 5mph /  8km/h 55.8% 0.00in /  0mm 907 W/m2
12:59 95.1 °F /  35.1 °C 76.5 °F /  24.7 °C 29.99in /  1015.5hPa WNW 1.5mph /  2.4km/h 5mph /  8km/h 55.3% 0.00in /  0mm 909 W/m2
13:04 95.5 °F /  35.3 °C 77 °F /  25 °C 29.99in /  1015.5hPa West 0.7mph /  1.1km/h 5mph /  8km/h 55.4% 0.00in /  0mm 932 W/m2
13:09 95.6 °F /  35.3 °C 76.4 °F /  24.7 °C 29.99in /  1015.5hPa WNW 1.5mph /  2.4km/h 9mph /  14.5km/h 54.2% 0.00in /  0mm 911 W/m2
13:14 95.4 °F /  35.2 °C 76.4 °F /  24.7 °C 29.98in /  1015.1hPa WNW 2.9mph /  4.7km/h 9mph /  14.5km/h 54.4% 0.00in /  0mm 902 W/m2
13:19 95.2 °F /  35.1 °C 76.4 °F /  24.7 °C 29.98in /  1015.1hPa WNW 0.7mph /  1.1km/h 9mph /  14.5km/h 54.8% 0.00in /  0mm 882 W/m2
13:24 95.3 °F /  35.2 °C 76 °F /  24.4 °C 29.98in /  1015.1hPa WNW 0.8mph /  1.3km/h 9mph /  14.5km/h 54% 0.00in /  0mm 882 W/m2
13:29 95.3 °F /  35.2 °C 75.8 °F /  24.3 °C 29.98in /  1015.1hPa WNW 0.4mph /  0.6km/h 9mph /  14.5km/h 53.6% 0.00in /  0mm 884 W/m2
13:34 95.4 °F /  35.2 °C 75.4 °F /  24.1 °C 29.97in /  1014.8hPa WNW 0.4mph /  0.6km/h 9mph /  14.5km/h 52.8% 0.00in /  0mm 889 W/m2
13:39 95.4 °F /  35.2 °C 76.1 °F /  24.5 °C 29.97in /  1014.8hPa West 1.5mph /  2.4km/h 5mph /  8km/h 53.9% 0.00in /  0mm 900 W/m2
13:44 95.5 °F /  35.3 °C 75.7 °F /  24.3 °C 29.97in /  1014.8hPa West 0.4mph /  0.6km/h 5mph /  8km/h 53.1% 0.00in /  0mm 932 W/m2
13:49 95.5 °F /  35.3 °C 75.6 °F /  24.2 °C 29.97in /  1014.8hPa West 1.5mph /  2.4km/h 5mph /  8km/h 52.9% 0.00in /  0mm 881 W/m2
13:54 95.7 °F /  35.4 °C 75.3 °F /  24.1 °C 29.97in /  1014.8hPa West 1mph /  1.6km/h 5mph /  8km/h 52.1% 0.00in /  0mm 888 W/m2
13:59 96 °F /  35.6 °C 76.1 °F /  24.5 °C 29.96in /  1014.4hPa WSW 1.9mph /  3.1km/h 7mph /  11.3km/h 53% 0.00in /  0mm 888 W/m2
14:04 96.5 °F /  35.8 °C 76.3 °F /  24.6 °C 29.96in /  1014.4hPa WSW 1.5mph /  2.4km/h 7mph /  11.3km/h 52.5% 0.00in /  0mm 879 W/m2
14:09 96.8 °F /  36 °C 75.5 °F /  24.2 °C 29.96in /  1014.4hPa WSW 0.9mph /  1.4km/h 5mph /  8km/h 50.7% 0.00in /  0mm 879 W/m2
14:14 97.1 °F /  36.2 °C 75.5 °F /  24.2 °C 29.96in /  1014.4hPa West 2.7mph /  4.3km/h 7mph /  11.3km/h 50.2% 0.00in /  0mm 856 W/m2
14:19 97.3 °F /  36.3 °C 74.7 °F /  23.7 °C 29.96in /  1014.4hPa WNW 1.7mph /  2.7km/h 7mph /  11.3km/h 48.7% 0.00in /  0mm 851 W/m2
14:24 97.5 °F /  36.4 °C 75 °F /  23.9 °C 29.96in /  1014.4hPa WNW 2mph /  3.2km/h 7mph /  11.3km/h 48.8% 0.00in /  0mm 853 W/m2
14:29 97.8 °F /  36.6 °C 74.4 °F /  23.6 °C 29.96in /  1014.4hPa SW 1.5mph /  2.4km/h 7mph /  11.3km/h 47.3% 0.00in /  0mm 849 W/m2
14:34 98 °F /  36.7 °C 74.8 °F /  23.8 °C 29.95in /  1014.1hPa West 3mph /  4.8km/h 9mph /  14.5km/h 47.6% 0.00in /  0mm 837 W/m2
14:39 98.1 °F /  36.7 °C 74.4 °F /  23.6 °C 29.95in /  1014.1hPa West 3.4mph /  5.5km/h 9mph /  14.5km/h 47% 0.00in /  0mm 826 W/m2
14:44 97.9 °F /  36.6 °C 74.4 °F /  23.6 °C 29.95in /  1014.1hPa WNW 2.8mph /  4.5km/h 9mph /  14.5km/h 47.2% 0.00in /  0mm 823 W/m2
14:49 97.9 °F /  36.6 °C 74.1 °F /  23.4 °C 29.95in /  1014.1hPa WSW 3mph /  4.8km/h 10mph /  16.1km/h 46.7% 0.00in /  0mm 805 W/m2
14:54 98 °F /  36.7 °C 74.2 °F /  23.4 °C 29.95in /  1014.1hPa WSW 1.9mph /  3.1km/h 10mph /  16.1km/h 46.7% 0.00in /  0mm 800 W/m2
14:59 98.1 °F /  36.7 °C 74.6 °F /  23.7 °C 29.95in /  1014.1hPa West 4.6mph /  7.4km/h 10mph /  16.1km/h 47.3% 0.00in /  0mm 793 W/m2
15:04 98 °F /  36.7 °C 74.5 °F /  23.6 °C 29.95in /  1014.1hPa WSW 3mph /  4.8km/h 11mph /  17.7km/h 47.2% 0.00in /  0mm 784 W/m2
15:09 98 °F /  36.7 °C 75.2 °F /  24 °C 29.95in /  1014.1hPa West 2.4mph /  3.9km/h 11mph /  17.7km/h 48.3% 0.00in /  0mm 777 W/m2
15:14 98.2 °F /  36.8 °C 75.4 °F /  24.1 °C 29.95in /  1014.1hPa WNW 1.9mph /  3.1km/h 11mph /  17.7km/h 48.4% 0.00in /  0mm 770 W/m2
15:19 98.3 °F /  36.8 °C 75.1 °F /  23.9 °C 29.95in /  1014.1hPa West 3.9mph /  6.3km/h 11mph /  17.7km/h 47.7% 0.00in /  0mm 758 W/m2
15:24 98.3 °F /  36.8 °C 74.8 °F /  23.8 °C 29.95in /  1014.1hPa SW 1mph /  1.6km/h 11mph /  17.7km/h 47.3% 0.00in /  0mm 737 W/m2
15:29 98.2 °F /  36.8 °C 75.1 °F /  23.9 °C 29.95in /  1014.1hPa WSW 1.7mph /  2.7km/h 11mph /  17.7km/h 47.9% 0.00in /  0mm 724 W/m2
15:34 98.1 °F /  36.7 °C 74.8 °F /  23.8 °C 29.95in /  1014.1hPa West 1mph /  1.6km/h 11mph /  17.7km/h 47.5% 0.00in /  0mm 708 W/m2
15:39 98.1 °F /  36.7 °C 75.2 °F /  24 °C 29.94in /  1013.8hPa West 1.7mph /  2.7km/h 5mph /  8km/h 48.2% 0.00in /  0mm 693 W/m2
15:44 98.1 °F /  36.7 °C 74.8 °F /  23.8 °C 29.94in /  1013.8hPa WSW 2.2mph /  3.5km/h 7mph /  11.3km/h 47.6% 0.00in /  0mm 680 W/m2
15:49 98 °F /  36.7 °C 74.9 °F /  23.8 °C 29.94in /  1013.8hPa WSW 2.4mph /  3.9km/h 7mph /  11.3km/h 47.9% 0.00in /  0mm 668 W/m2
15:54 98 °F /  36.7 °C 74.6 °F /  23.7 °C 29.94in /  1013.8hPa WSW 1.1mph /  1.8km/h 7mph /  11.3km/h 47.3% 0.00in /  0mm 650 W/m2
15:59 98 °F /  36.7 °C 74.7 °F /  23.7 °C 29.94in /  1013.8hPa WSW 2.1mph /  3.4km/h 7mph /  11.3km/h 47.6% 0.00in /  0mm 645 W/m2
16:00 97.9 °F /  36.6 °C 74.9 °F /  23.8 °C 29.94in /  1013.8hPa SW 3mph /  4.8km/h 7mph /  11.3km/h 48% 0.00in /  0mm 622 W/m2
16:09 97.6 °F /  36.4 °C 75 °F /  23.9 °C 29.93in /  1013.4hPa WSW 1mph /  1.6km/h 4mph /  6.4km/h 48.6% 0.00in /  0mm 610 W/m2
16:14 97.4 °F /  36.3 °C 75.3 °F /  24.1 °C 29.93in /  1013.4hPa WSW 2mph /  3.2km/h 7mph /  11.3km/h 49.6% 0.00in /  0mm 519 W/m2
16:19 97 °F /  36.1 °C 75.3 °F /  24.1 °C 29.93in /  1013.4hPa WSW 1.9mph /  3.1km/h 7mph /  11.3km/h 49.9% 0.00in /  0mm 60 W/m2
16:24 96.8 °F /  36 °C 75 °F /  23.9 °C 29.92in /  1013.1hPa West 0.9mph /  1.4km/h 7mph /  11.3km/h 49.8% 0.00in /  0mm 56 W/m2
16:29 96.4 °F /  35.8 °C 75.2 °F /  24 °C 29.92in /  1013.1hPa WSW 1.7mph /  2.7km/h 7mph /  11.3km/h 50.8% 0.00in /  0mm 54 W/m2
16:34 96.2 °F /  35.7 °C 75.2 °F /  24 °C 29.92in /  1013.1hPa West 0.5mph /  0.8km/h 7mph /  11.3km/h 51.1% 0.00in /  0mm 53 W/m2
16:39 95.9 °F /  35.5 °C 74.9 °F /  23.8 °C 29.92in /  1013.1hPa West 1.9mph /  3.1km/h 5mph /  8km/h 51.1% 0.00in /  0mm 51 W/m2
16:44 95.7 °F /  35.4 °C 74.8 °F /  23.8 °C 29.92in /  1013.1hPa WSW 2mph /  3.2km/h 5mph /  8km/h 51.1% 0.00in /  0mm 49 W/m2
16:49 95.5 °F /  35.3 °C 74.7 °F /  23.7 °C 29.92in /  1013.1hPa West 1.9mph /  3.1km/h 7mph /  11.3km/h 51.3% 0.00in /  0mm 49 W/m2
16:54 95.4 °F /  35.2 °C 75 °F /  23.9 °C 29.92in /  1013.1hPa West 0.9mph /  1.4km/h 7mph /  11.3km/h 52% 0.00in /  0mm 51 W/m2
16:59 95.3 °F /  35.2 °C 74.8 °F /  23.8 °C 29.92in /  1013.1hPa West 1mph /  1.6km/h 7mph /  11.3km/h 51.7% 0.00in /  0mm 51 W/m2
17:04 95.3 °F /  35.2 °C 74.8 °F /  23.8 °C 29.92in /  1013.1hPa West 0.7mph /  1.1km/h 7mph /  11.3km/h 51.9% 0.00in /  0mm 47 W/m2
17:09 95.2 °F /  35.1 °C 74.7 °F /  23.7 °C 29.92in /  1013.1hPa WSW 1.7mph /  2.7km/h 5mph /  8km/h 51.7% 0.00in /  0mm 46 W/m2
17:14 95.1 °F /  35.1 °C 74 °F /  23.3 °C 29.92in /  1013.1hPa West 1mph /  1.6km/h 5mph /  8km/h 50.6% 0.00in /  0mm 44 W/m2
17:19 95.1 °F /  35.1 °C 74.6 °F /  23.7 °C 29.93in /  1013.4hPa WSW 1.9mph /  3.1km/h 5mph /  8km/h 51.9% 0.00in /  0mm 42 W/m2
17:24 95 °F /  35 °C 74.2 °F /  23.4 °C 29.93in /  1013.4hPa West 1.4mph /  2.3km/h 6mph /  9.7km/h 51.3% 0.00in /  0mm 42 W/m2
17:29 94.9 °F /  34.9 °C 74.1 °F /  23.4 °C 29.93in /  1013.4hPa WSW 1.1mph /  1.8km/h 6mph /  9.7km/h 51.3% 0.00in /  0mm 40 W/m2
17:34 94.8 °F /  34.9 °C 73.9 °F /  23.3 °C 29.92in /  1013.1hPa WSW 0.7mph /  1.1km/h 6mph /  9.7km/h 51% 0.00in /  0mm 40 W/m2
17:39 94.7 °F /  34.8 °C 74 °F /  23.3 °C 29.92in /  1013.1hPa WSW 1.2mph /  1.9km/h 4mph /  6.4km/h 51.4% 0.00in /  0mm 39 W/m2
17:44 94.6 °F /  34.8 °C 74.1 °F /  23.4 °C 29.93in /  1013.4hPa WSW 1.2mph /  1.9km/h 5mph /  8km/h 51.7% 0.00in /  0mm 39 W/m2
17:49 94.5 °F /  34.7 °C 74.1 °F /  23.4 °C 29.93in /  1013.4hPa West 1mph /  1.6km/h 5mph /  8km/h 51.9% 0.00in /  0mm 37 W/m2
17:54 94.3 °F /  34.6 °C 74.6 °F /  23.7 °C 29.92in /  1013.1hPa WNW 0.2mph /  0.3km/h 5mph /  8km/h 53% 0.00in /  0mm 37 W/m2
17:59 94.2 °F /  34.6 °C 74.4 °F /  23.6 °C 29.92in /  1013.1hPa WNW 1.2mph /  1.9km/h 5mph /  8km/h 53% 0.00in /  0mm 35 W/m2
18:04 93.9 °F /  34.4 °C 74.5 °F /  23.6 °C 29.92in /  1013.1hPa WNW 0.5mph /  0.8km/h 5mph /  8km/h 53.5% 0.00in /  0mm 33 W/m2
18:09 93.8 °F /  34.3 °C 74.7 °F /  23.7 °C 29.92in /  1013.1hPa West 0.3mph /  0.5km/h 3mph /  4.8km/h 54.1% 0.00in /  0mm 33 W/m2
18:14 93.7 °F /  34.3 °C 75.4 °F /  24.1 °C 29.93in /  1013.4hPa West 0.3mph /  0.5km/h 3mph /  4.8km/h 55.5% 0.00in /  0mm 32 W/m2
18:19 93.7 °F /  34.3 °C 75.2 °F /  24 °C 29.93in /  1013.4hPa West 0.2mph /  0.3km/h 3mph /  4.8km/h 55.2% 0.00in /  0mm 32 W/m2
18:24 93.6 °F /  34.2 °C 75.2 °F /  24 °C 29.93in /  1013.4hPa Calm   3mph /  4.8km/h 55.4% 0.00in /  0mm 30 W/m2
18:29 93.5 °F /  34.2 °C 75.5 °F /  24.2 °C 29.93in /  1013.4hPa Calm   3mph /  4.8km/h 56% 0.00in /  0mm 30 W/m2
18:34 93.4 °F /  34.1 °C 75.5 °F /  24.2 °C 29.93in /  1013.4hPa West 0.9mph /  1.4km/h 4mph /  6.4km/h 56.3% 0.00in /  0mm 30 W/m2
18:39 93.3 °F /  34.1 °C 75.4 °F /  24.1 °C 29.93in /  1013.4hPa Calm   4mph /  6.4km/h 56.3% 0.00in /  0mm 28 W/m2
18:44 93.1 °F /  33.9 °C 75.2 °F /  24 °C 29.93in /  1013.4hPa Calm   4mph /  6.4km/h 56.2% 0.00in /  0mm 26 W/m2
18:49 93 °F /  33.9 °C 75.5 °F /  24.2 °C 29.92in /  1013.1hPa Calm   4mph /  6.4km/h 56.9% 0.00in /  0mm 25 W/m2
18:54 92.9 °F /  33.8 °C 75.7 °F /  24.3 °C 29.93in /  1013.4hPa Calm   4mph /  6.4km/h 57.6% 0.00in /  0mm 23 W/m2
18:59 92.7 °F /  33.7 °C 75.8 °F /  24.3 °C 29.93in /  1013.4hPa West 0.1mph /  0.2km/h 4mph /  6.4km/h 58% 0.00in /  0mm 21 W/m2
19:04 92.5 °F /  33.6 °C 75.6 °F /  24.2 °C 29.93in /  1013.4hPa Calm   4mph /  6.4km/h 58% 0.00in /  0mm 19 W/m2
19:09 92.3 °F /  33.5 °C 75.7 °F /  24.3 °C 29.93in /  1013.4hPa Calm     58.7% 0.00in /  0mm 18 W/m2
19:14 92.1 °F /  33.4 °C 75.7 °F /  24.3 °C 29.93in /  1013.4hPa Calm     59% 0.00in /  0mm 16 W/m2
19:19 91.9 °F /  33.3 °C 75.9 °F /  24.4 °C 29.93in /  1013.4hPa Calm     59.8% 0.00in /  0mm 14 W/m2
19:24 91.6 °F /  33.1 °C 75.8 °F /  24.3 °C 29.93in /  1013.4hPa Calm     60% 0.00in /  0mm 11 W/m2
19:29 91.4 °F /  33 °C 76 °F /  24.4 °C 29.93in /  1013.4hPa Calm     60.9% 0.00in /  0mm 7 W/m2
19:34 91.1 °F /  32.8 °C 75.8 °F /  24.3 °C 29.93in /  1013.4hPa Calm     61% 0.00in /  0mm 0 W/m2
19:39 90.8 °F /  32.7 °C 75.7 °F /  24.3 °C 29.93in /  1013.4hPa Calm     61.5% 0.00in /  0mm 0 W/m2
19:44 90.4 °F /  32.4 °C 75.6 °F /  24.2 °C 29.94in /  1013.8hPa Calm     62% 0.00in /  0mm 0 W/m2
19:49 90.1 °F /  32.3 °C 75.6 °F /  24.2 °C 29.94in /  1013.8hPa Calm     62.5% 0.00in /  0mm 0 W/m2
19:54 89.8 °F /  32.1 °C 75.8 °F /  24.3 °C 29.94in /  1013.8hPa Calm     63.5% 0.00in /  0mm 0 W/m2
19:59 89.5 °F /  31.9 °C 75.9 °F /  24.4 °C 29.94in /  1013.8hPa Calm     64.5% 0.00in /  0mm 0 W/m2
20:09 88.8 °F /  31.6 °C 76.3 °F /  24.6 °C 29.94in /  1013.8hPa Calm     66.7% 0.00in /  0mm 0 W/m2
20:14 88.3 °F /  31.3 °C 75.9 °F /  24.4 °C 29.94in /  1013.8hPa Calm     66.9% 0.00in /  0mm 0 W/m2
20:19 87.9 °F /  31.1 °C 75.6 °F /  24.2 °C 29.94in /  1013.8hPa Calm     67% 0.00in /  0mm 0 W/m2
20:24 87.6 °F /  30.9 °C 75.3 °F /  24.1 °C 29.94in /  1013.8hPa Calm     67% 0.00in /  0mm 0 W/m2
20:29 87.4 °F /  30.8 °C 75.1 °F /  23.9 °C 29.95in /  1014.1hPa Calm     67% 0.00in /  0mm 0 W/m2
20:34 87.2 °F /  30.7 °C 75.3 °F /  24.1 °C 29.95in /  1014.1hPa Calm     67.8% 0.00in /  0mm 0 W/m2
20:39 87 °F /  30.6 °C 75.2 °F /  24 °C 29.95in /  1014.1hPa Calm     68% 0.00in /  0mm 0 W/m2
20:44 86.9 °F /  30.5 °C 75.4 °F /  24.1 °C 29.95in /  1014.1hPa Calm     68.9% 0.00in /  0mm 0 W/m2
20:49 86.7 °F /  30.4 °C 75.3 °F /  24.1 °C 29.96in /  1014.4hPa Calm     69% 0.00in /  0mm 0 W/m2
20:54 86.5 °F /  30.3 °C 75.2 °F /  24 °C 29.96in /  1014.4hPa Calm     69.2% 0.00in /  0mm 0 W/m2
20:59 86.3 °F /  30.2 °C 75.4 °F /  24.1 °C 29.96in /  1014.4hPa Calm     70% 0.00in /  0mm 0 W/m2
21:04 86 °F /  30 °C 75.5 °F /  24.2 °C 29.96in /  1014.4hPa Calm     70.8% 0.00in /  0mm 0 W/m2
21:09 85.8 °F /  29.9 °C 75.3 °F /  24.1 °C 29.96in /  1014.4hPa Calm     71% 0.00in /  0mm 0 W/m2
21:14 85.6 °F /  29.8 °C 75.5 °F /  24.2 °C 29.96in /  1014.4hPa Calm     71.9% 0.00in /  0mm 0 W/m2
21:19 85.4 °F /  29.7 °C 75.4 °F /  24.1 °C 29.95in /  1014.1hPa Calm     72% 0.00in /  0mm 0 W/m2
21:24 85.3 °F /  29.6 °C 75.3 °F /  24.1 °C 29.96in /  1014.4hPa Calm     72.2% 0.00in /  0mm 0 W/m2
21:29 85.2 °F /  29.6 °C 75.5 °F /  24.2 °C 29.96in /  1014.4hPa Calm     73% 0.00in /  0mm 0 W/m2
21:34 85 °F /  29.4 °C 75.3 °F /  24.1 °C 29.95in /  1014.1hPa Calm     73% 0.00in /  0mm 0 W/m2
21:39 84.8 °F /  29.3 °C 75.2 °F /  24 °C 29.95in /  1014.1hPa Calm     73% 0.00in /  0mm 0 W/m2
21:44 84.7 °F /  29.3 °C 75 °F /  23.9 °C 29.95in /  1014.1hPa Calm     72.8% 0.00in /  0mm 0 W/m2
21:49 84.6 °F /  29.2 °C 74.9 °F /  23.8 °C 29.96in /  1014.4hPa Calm     72.8% 0.00in /  0mm 0 W/m2
21:54 84.5 °F /  29.2 °C 74.9 °F /  23.8 °C 29.96in /  1014.4hPa Calm     73% 0.00in /  0mm 0 W/m2
21:59 84.4 °F /  29.1 °C 74.8 °F /  23.8 °C 29.96in /  1014.4hPa Calm     73% 0.00in /  0mm 0 W/m2
22:04 84.3 °F /  29.1 °C 74.7 °F /  23.7 °C 29.96in /  1014.4hPa Calm     73% 0.00in /  0mm 0 W/m2
22:09 84.2 °F /  29 °C 74.7 °F /  23.7 °C 29.97in /  1014.8hPa Calm     73.3% 0.00in /  0mm 0 W/m2
22:14 84.1 °F /  28.9 °C 74.8 °F /  23.8 °C 29.97in /  1014.8hPa Calm     73.8% 0.00in /  0mm 0 W/m2
22:19 83.9 °F /  28.8 °C 74.8 °F /  23.8 °C 29.97in /  1014.8hPa Calm     74% 0.00in /  0mm 0 W/m2
22:24 83.8 °F /  28.8 °C 74.7 °F /  23.7 °C 29.98in /  1015.1hPa Calm     74% 0.00in /  0mm 0 W/m2
22:29 83.7 °F /  28.7 °C 74.6 °F /  23.7 °C 29.97in /  1014.8hPa Calm     74% 0.00in /  0mm 0 W/m2
22:34 83.6 °F /  28.7 °C 74.7 °F /  23.7 °C 29.98in /  1015.1hPa Calm     74.5% 0.00in /  0mm 0 W/m2
22:39 83.5 °F /  28.6 °C 74.8 °F /  23.8 °C 29.98in /  1015.1hPa Calm     75% 0.00in /  0mm 0 W/m2
22:44 83.4 °F /  28.6 °C 74.7 °F /  23.7 °C 29.97in /  1014.8hPa Calm     75% 0.00in /  0mm 0 W/m2
22:49 83.3 °F /  28.5 °C 74.6 °F /  23.7 °C 29.97in /  1014.8hPa Calm     75% 0.00in /  0mm 0 W/m2
22:54 83.2 °F /  28.4 °C 74.5 °F /  23.6 °C 29.97in /  1014.8hPa Calm     75% 0.00in /  0mm 0 W/m2
22:59 83.1 °F /  28.4 °C 74.6 °F /  23.7 °C 29.97in /  1014.8hPa Calm     75.6% 0.00in /  0mm 0 W/m2
23:04 83 °F /  28.3 °C 74.7 °F /  23.7 °C 29.97in /  1014.8hPa Calm     76% 0.00in /  0mm 0 W/m2
23:09 82.9 °F /  28.3 °C 74.5 °F /  23.6 °C 29.97in /  1014.8hPa Calm     76% 0.00in /  0mm 0 W/m2
23:14 82.7 °F /  28.2 °C 74.4 °F /  23.6 °C 29.97in /  1014.8hPa Calm     76% 0.00in /  0mm 0 W/m2
23:19 82.6 °F /  28.1 °C 74.5 °F /  23.6 °C 29.97in /  1014.8hPa Calm     76.5% 0.00in /  0mm 0 W/m2
23:24 82.5 °F /  28.1 °C 74.6 °F /  23.7 °C 29.97in /  1014.8hPa Calm     77% 0.00in /  0mm 0 W/m2
23:29 82.4 °F /  28 °C 74.3 °F /  23.5 °C 29.97in /  1014.8hPa Calm     76.7% 0.00in /  0mm 0 W/m2
23:34 82.3 °F /  27.9 °C 74.4 °F /  23.6 °C 29.97in /  1014.8hPa Calm     77% 0.00in /  0mm 0 W/m2
23:39 82.2 °F /  27.9 °C 74.3 °F /  23.5 °C 29.96in /  1014.4hPa Calm     77% 0.00in /  0mm 0 W/m2
23:44 82.1 °F /  27.8 °C 74.4 °F /  23.6 °C 29.97in /  1014.8hPa Calm     77.6% 0.00in /  0mm 0 W/m2
23:49 82 °F /  27.8 °C 74.5 °F /  23.6 °C 29.97in /  1014.8hPa Calm     78% 0.00in /  0mm 0 W/m2
23:54 81.9 °F /  27.7 °C 74.4 °F /  23.6 °C 29.97in /  1014.8hPa Calm     78% 0.00in /  0mm 0 W/m2
23:59 81.8 °F /  27.7 °C 74.3 °F /  23.5 °C 29.97in /  1014.8hPa Calm     78.1% 0.00in /  0mm 0 W/m2
Hartford County Weather
Compliments of Weather Underground - 4 mb